Glenvil, Nebraska
Current Conditions -  °F | °C
As of 3:53 PM on Saturday 20 Dec 2014 (Local Time) from KHSI Reporting Station
Clear Clear  
Wind Chill: 39°   Ceiling: Unl
Heat Index: 43°   Visibility: 10mi
Dew Point: 33°   Wind: 6mph
Humidity: 68%   Direction: 170°S
Pressure: 29.98"   Gusts: NA
Location:  40.5°N, 98.25°W
Report Text: KHSI 202153Z AUTO 17005KT 10SM CLR 06/01 A2998 RMK AO2 SLP167 T00610006
Loading
Personal Weather Stations






























Interactive Weather Map New forecast layout! Learn more

10-Day Weather Forecast

Advertisements
Track Severe Weather on mobile